Jayapura/Sentani Airport

Airport
ICAO code: 
WAJJ
IATA Code: 
DJJ
Summary
ICAO Region: 
APAC
Territory: 
Location: 
Sentani, Papua
Serving: 
Jayapura
Elevation: 
289 ft
Coordinates: 
Aerial View: 
2° 34' 36.26" S, 140° 30' 57.679" E
Metar
Observation
WAJJ 200030Z 01003KT 9999 SCT011 27/23 Q1007 NOSIG
Station
Jayapura / Sentani
Date/Time
2022-01-20 00:30:00
Wind direction
10°
Wind speed
03 kts
Lowest cloud amount
scattered clouds
Temperature
27°C
Dew point
23°C
Humidity
78%
QNH
1007 hPa
Weather condition
n/a

Description

Jalan Raya Airport Sentani is an airport serving Jayapura, the capital of Papua province, Indonesia, on the island of New Guinea.

Climatology

Runways

Designator Length Width Surface Rops
12/30 2183 45 ASP Yes/Yes
Airport map: 
Aerial View: 

SKYbrary Partners:

Safety knowledge contributed by: